Time;durP1;ratioP1;P1;durP2;ratioP2;P2;SDS_P1;SDS_P2;PMS_P1;PMS_P2;Temp;Humidity;BMP_temperature;BMP_pressure;BME280_temperature;BME280_humidity;BME280_pressure;Samples;Min_cycle;Max_cycle;Signal;HPM_P1;HPM_P2
2022/03/03 00:01:25;;;;;;;;;78.50;60.50;;;;;9.15;63.34;101516.53;5023831;28;46115;-66
2022/03/03 00:03:50;;;;;;;;;76.25;58.50;;;;;9.17;62.81;101519.13;5023585;28;45256;-66
2022/03/03 00:06:15;;;;;;;;;78.25;60.75;;;;;9.14;62.50;101517.50;5021900;28;45316;-67
2022/03/03 00:08:41;;;;;;;;;82.00;62.00;;;;;9.11;62.61;101504.22;5024065;28;45509;-67
2022/03/03 00:11:06;;;;;;;;;75.25;60.50;;;;;9.20;62.07;101510.78;5023519;28;46705;-67
2022/03/03 00:13:31;;;;;;;;;77.50;61.25;;;;;9.16;62.31;101512.84;5023344;28;45170;-65
2022/03/03 00:15:57;;;;;;;;;81.25;61.50;;;;;9.05;63.23;101511.97;5023860;28;45323;-66
2022/03/03 00:18:22;;;;;;;;;84.75;64.25;;;;;8.99;63.93;101507.88;5022738;28;45548;-66
2022/03/03 00:20:47;;;;;;;;;85.75;63.50;;;;;8.92;64.46;101503.91;5023658;28;46283;-67
2022/03/03 00:23:13;;;;;;;;;85.75;63.75;;;;;8.91;64.15;101504.94;5022063;28;45543;-65
2022/03/03 00:25:38;;;;;;;;;79.75;61.50;;;;;8.88;64.50;101505.16;5023023;28;45906;-66
2022/03/03 00:28:04;;;;;;;;;79.75;60.00;;;;;8.93;64.08;101511.94;5022089;28;45469;-65
2022/03/03 00:30:30;;;;;;;;;86.75;68.00;;;;;8.93;64.07;101502.94;5023429;28;45489;-66
2022/03/03 00:32:55;;;;;;;;;81.00;62.75;;;;;8.90;64.69;101504.06;5023263;28;45347;-66
2022/03/03 00:35:21;;;;;;;;;81.50;61.25;;;;;8.91;64.57;101507.63;5022327;28;45484;-67
2022/03/03 00:37:46;;;;;;;;;84.75;65.00;;;;;8.89;64.57;101501.47;5023795;28;45248;-66
2022/03/03 00:40:12;;;;;;;;;87.25;65.25;;;;;8.90;65.00;101511.31;5023178;28;45388;-66
2022/03/03 00:42:38;;;;;;;;;86.00;62.75;;;;;8.91;64.57;101516.59;5023231;28;45331;-67
2022/03/03 00:45:04;;;;;;;;;75.50;59.00;;;;;8.93;64.77;101511.06;5038243;28;45370;-67
2022/03/03 00:47:30;;;;;;;;;86.75;66.00;;;;;8.98;64.61;101508.88;5023505;28;45309;-67
2022/03/03 00:49:55;;;;;;;;;89.25;65.00;;;;;8.99;64.39;101513.28;5022933;28;46686;-66
2022/03/03 00:52:20;;;;;;;;;78.00;61.00;;;;;9.00;64.21;101512.31;5021674;28;45242;-68
2022/03/03 00:54:46;;;;;;;;;81.75;62.25;;;;;9.00;64.53;101509.59;5023311;28;45236;-67
2022/03/03 00:57:11;;;;;;;;;84.00;66.25;;;;;8.91;64.73;101504.94;5023327;28;45587;-66
2022/03/03 00:59:37;;;;;;;;;84.25;69.00;;;;;8.95;65.07;101506.41;5021444;28;46527;-67
2022/03/03 01:02:02;;;;;;;;;88.50;66.00;;;;;8.94;65.20;101510.94;5022833;28;44604;-66
2022/03/03 01:04:27;;;;;;;;;85.25;64.25;;;;;8.91;65.08;101507.63;5023128;28;45346;-67
2022/03/03 01:06:53;;;;;;;;;87.00;71.00;;;;;8.93;65.20;101514.63;5023506;28;45558;-66
2022/03/03 01:09:18;;;;;;;;;83.75;63.75;;;;;8.99;64.76;101514.16;5022788;28;46409;-66
2022/03/03 01:11:44;;;;;;;;;82.25;64.00;;;;;8.99;64.63;101511.44;5022784;28;45407;-67
2022/03/03 01:14:09;;;;;;;;;82.25;61.75;;;;;8.97;64.89;101510.72;5021372;28;45709;-66
2022/03/03 01:16:35;;;;;;;;;77.75;57.75;;;;;8.87;64.81;101498.88;5021657;28;45280;-66
2022/03/03 01:19:00;;;;;;;;;80.75;64.00;;;;;8.98;64.95;101525.97;5022878;28;46445;-66
2022/03/03 01:21:25;;;;;;;;;82.25;62.25;;;;;8.95;64.62;101509.09;5021324;28;45385;-67
2022/03/03 01:23:53;;;;;;;;;83.50;64.25;;;;;8.91;65.21;101511.19;5023040;28;45889;-66
2022/03/03 01:26:18;;;;;;;;;86.00;66.25;;;;;8.86;65.64;101513.38;5023074;28;45315;-67
2022/03/03 01:28:44;;;;;;;;;86.25;67.25;;;;;8.77;65.86;101510.53;5022193;28;46880;-66
2022/03/03 01:31:09;;;;;;;;;88.50;70.25;;;;;8.76;65.98;101506.09;5017755;28;45831;-66
2022/03/03 01:33:34;;;;;;;;;83.25;64.25;;;;;8.78;65.79;101496.00;5030384;28;45395;-67
2022/03/03 01:36:00;;;;;;;;;85.50;69.50;;;;;8.77;65.71;101491.56;5022452;28;45539;-67
2022/03/03 01:38:25;;;;;;;;;82.00;64.00;;;;;8.81;65.85;101493.94;5023824;28;46266;-67
2022/03/03 01:40:50;;;;;;;;;84.75;66.50;;;;;8.78;65.85;101493.28;5024770;28;45555;-67
2022/03/03 01:43:16;;;;;;;;;83.75;62.50;;;;;8.82;65.50;101500.22;5026004;28;45312;-67
2022/03/03 01:45:41;;;;;;;;;82.00;64.50;;;;;8.81;65.47;101503.91;5025061;28;45244;-67
2022/03/03 01:48:06;;;;;;;;;83.25;62.00;;;;;8.81;66.01;101498.47;5025668;28;46458;-67
2022/03/03 01:50:32;;;;;;;;;80.00;61.25;;;;;8.81;65.88;101487.63;5024329;28;45256;-67
2022/03/03 01:52:57;;;;;;;;;88.25;64.25;;;;;8.85;65.78;101494.53;5026227;28;45803;-67
2022/03/03 01:55:24;;;;;;;;;81.75;61.50;;;;;8.91;65.55;101500.34;5025779;28;45237;-67
2022/03/03 01:57:50;;;;;;;;;84.00;62.25;;;;;8.93;65.22;101486.69;5023977;28;47502;-66
2022/03/03 02:00:17;;;;;;;;;84.25;66.75;;;;;9.00;65.44;101493.34;5025575;28;45283;-66
2022/03/03 02:02:44;;;;;;;;;79.00;60.50;;;;;9.07;65.26;101494.59;5026000;28;45351;-66
2022/03/03 02:05:10;;;;;;;;;88.75;66.25;;;;;9.13;65.23;101493.25;5024781;28;45573;-66
2022/03/03 02:07:35;;;;;;;;;84.25;62.00;;;;;9.17;64.78;101490.19;5025569;28;45425;-66
2022/03/03 02:10:03;;;;;;;;;83.75;65.75;;;;;9.18;65.60;101491.91;5024013;28;45570;-66
2022/03/03 02:12:29;;;;;;;;;84.00;67.00;;;;;9.15;65.07;101486.72;5025872;28;45287;-66
2022/03/03 02:14:54;;;;;;;;;77.50;61.25;;;;;9.12;65.36;101486.13;5025017;28;45312;-66
2022/03/03 02:17:19;;;;;;;;;94.25;67.50;;;;;9.17;65.50;101498.31;5024749;28;46742;-66
2022/03/03 02:19:45;;;;;;;;;87.50;69.00;;;;;9.11;65.70;101498.81;5024531;28;45327;-65
2022/03/03 02:22:10;;;;;;;;;84.75;67.25;;;;;9.10;65.92;101482.66;5024853;28;45472;-66
2022/03/03 02:24:37;;;;;;;;;85.75;67.00;;;;;9.16;65.90;101488.44;5024913;28;45525;-66
2022/03/03 02:27:04;;;;;;;;;85.00;64.50;;;;;9.22;65.01;101484.38;5024226;28;46598;-66
2022/03/03 02:29:31;;;;;;;;;79.50;60.50;;;;;9.30;64.86;101484.63;5024121;28;45405;-66
2022/03/03 02:31:56;;;;;;;;;85.50;67.00;;;;;9.34;64.65;101486.13;5024737;28;45319;-66
2022/03/03 02:34:22;;;;;;;;;79.25;63.00;;;;;9.38;64.34;101474.91;5024995;28;45632;-66
2022/03/03 02:36:48;;;;;;;;;82.25;64.25;;;;;9.45;64.42;101477.13;5024542;28;45636;-66
2022/03/03 02:39:13;;;;;;;;;85.00;62.25;;;;;9.49;64.50;101473.19;5024406;28;45729;-66
2022/03/03 02:41:38;;;;;;;;;82.50;68.25;;;;;9.55;64.17;101478.13;5023340;28;45618;-66
2022/03/03 02:44:04;;;;;;;;;88.00;73.00;;;;;9.56;64.02;101472.56;5024774;28;45673;-66
2022/03/03 02:46:30;;;;;;;;;81.00;62.75;;;;;9.63;64.06;101475.66;5025088;28;45424;-66
2022/03/03 02:48:56;;;;;;;;;84.75;69.50;;;;;9.68;63.73;101468.84;5024879;28;45366;-66
2022/03/03 02:51:22;;;;;;;;;86.00;71.25;;;;;9.70;63.82;101468.72;5025277;28;45283;-66
2022/03/03 02:53:47;;;;;;;;;92.25;73.75;;;;;9.68;63.72;101460.72;5025430;28;45271;-66
2022/03/03 02:56:13;;;;;;;;;90.75;73.50;;;;;9.70;63.86;101460.59;5023558;28;46986;-66
2022/03/03 02:58:39;;;;;;;;;90.75;75.50;;;;;9.78;63.28;101463.53;5024558;28;45495;-66
2022/03/03 03:01:05;;;;;;;;;87.75;72.25;;;;;9.75;63.60;101447.50;5025192;28;45529;-67
2022/03/03 03:03:31;;;;;;;;;86.00;69.25;;;;;9.77;64.09;101446.41;5025282;28;45220;-66
2022/03/03 03:05:56;;;;;;;;;85.50;68.00;;;;;9.77;63.70;101451.81;5024597;28;45482;-66
2022/03/03 03:08:22;;;;;;;;;79.75;60.50;;;;;9.87;62.23;101441.06;5024658;28;45375;-66
2022/03/03 03:10:47;;;;;;;;;84.75;69.25;;;;;9.89;63.02;101438.22;5025072;28;45208;-66
2022/03/03 03:13:14;;;;;;;;;78.50;61.50;;;;;9.78;63.77;101436.41;5024821;28;45514;-66
2022/03/03 03:15:44;;;;;;;;;91.00;63.50;;;;;9.73;63.50;101438.63;5024755;28;46483;-66
2022/03/03 03:18:14;;;;;;;;;85.25;66.25;;;;;9.66;64.28;101431.97;5024348;28;45264;-66
2022/03/03 03:20:42;;;;;;;;;90.75;69.25;;;;;9.61;64.03;101426.94;5024950;28;45335;-66
2022/03/03 03:23:10;;;;;;;;;86.00;63.50;;;;;9.59;63.96;101419.91;5025149;28;45290;-66
2022/03/03 03:25:37;;;;;;;;;82.50;63.25;;;;;9.66;64.34;101426.53;5024660;28;45529;-66
2022/03/03 03:28:05;;;;;;;;;80.00;60.75;;;;;9.76;63.80;101422.97;5037003;28;45527;-66
2022/03/03 03:30:30;;;;;;;;;83.25;63.25;;;;;9.82;63.80;101418.88;5024558;28;45459;-67
2022/03/03 03:32:56;;;;;;;;;81.25;62.50;;;;;9.83;63.62;101419.72;5025219;28;45322;-66
2022/03/03 03:35:21;;;;;;;;;80.25;59.75;;;;;9.87;63.28;101421.19;5023987;28;45408;-67
2022/03/03 03:37:47;;;;;;;;;80.75;61.75;;;;;9.81;63.83;101411.72;5024389;28;45421;-66
2022/03/03 03:40:13;;;;;;;;;79.75;61.00;;;;;9.77;63.68;101412.97;5024327;28;45404;-66
2022/03/03 03:42:38;;;;;;;;;82.50;59.75;;;;;9.71;63.99;101402.63;5024172;28;45319;-66
2022/03/03 03:45:04;;;;;;;;;83.00;63.00;;;;;9.72;63.91;101404.31;5022650;28;48166;-66
2022/03/03 03:47:31;;;;;;;;;79.75;61.00;;;;;9.75;63.66;101407.66;5022812;28;45996;-65
2022/03/03 03:49:58;;;;;;;;;79.75;61.25;;;;;9.79;64.50;101404.72;5022721;28;45491;-65
2022/03/03 03:52:23;;;;;;;;;80.00;60.50;;;;;9.82;63.65;101408.00;5023367;28;45527;-65
2022/03/03 03:54:48;;;;;;;;;84.00;64.00;;;;;9.80;63.91;101393.69;5023941;28;45268;-65
2022/03/03 03:57:14;;;;;;;;;80.50;63.25;;;;;9.81;64.37;101398.13;5017296;28;45430;-65
2022/03/03 03:59:39;;;;;;;;;82.25;61.25;;;;;9.83;63.55;101389.88;5035922;28;45358;-65
2022/03/03 04:02:04;;;;;;;;;78.00;60.50;;;;;9.81;64.13;101386.41;5021869;28;45521;-65
2022/03/03 04:04:30;;;;;;;;;79.00;60.25;;;;;9.87;63.75;101397.63;5023139;28;45352;-65
2022/03/03 04:06:56;;;;;;;;;73.50;58.25;;;;;9.96;63.53;101394.16;5006123;28;45629;-65
2022/03/03 04:09:21;;;;;;;;;73.00;57.00;;;;;10.02;63.84;101400.91;5024042;28;45347;-66
2022/03/03 04:11:46;;;;;;;;;57.75;42.00;;;;;9.96;63.93;101394.16;5022935;28;45329;-65
2022/03/03 04:14:12;;;;;;;;;72.75;57.25;;;;;9.94;64.11;101385.25;5022017;28;47308;-65
2022/03/03 04:16:37;;;;;;;;;76.25;59.00;;;;;10.00;63.35;101387.50;5022270;28;45353;-65
2022/03/03 04:19:03;;;;;;;;;79.75;62.00;;;;;10.07;62.98;101385.13;5023805;28;45322;-65
2022/03/03 04:21:31;;;;;;;;;82.00;62.25;;;;;10.06;63.25;101375.25;5023865;28;45537;-65
2022/03/03 04:23:56;;;;;;;;;75.50;58.25;;;;;10.10;62.52;101382.97;5023541;28;45254;-65
2022/03/03 04:26:22;;;;;;;;;76.25;57.75;;;;;10.07;63.21;101372.41;5023508;28;45174;-65
2022/03/03 04:28:47;;;;;;;;;85.25;62.75;;;;;9.99;63.51;101366.75;5023047;28;45229;-65
2022/03/03 04:31:13;;;;;;;;;79.25;61.25;;;;;9.97;63.63;101360.59;5023863;28;45307;-65
2022/03/03 04:33:38;;;;;;;;;84.75;64.50;;;;;10.01;63.64;101363.88;5023159;28;46581;-65
2022/03/03 04:36:05;;;;;;;;;79.50;61.25;;;;;9.95;63.62;101346.28;5023348;28;45138;-65
2022/03/03 04:38:30;;;;;;;;;80.75;58.50;;;;;10.03;63.72;101354.63;5023509;28;45331;-65
2022/03/03 04:40:55;;;;;;;;;81.75;60.50;;;;;10.01;63.82;101356.59;5023720;28;45319;-66
2022/03/03 04:43:21;;;;;;;;;77.75;57.50;;;;;10.04;63.69;101347.34;5022924;28;46361;-65
2022/03/03 04:45:46;;;;;;;;;80.50;61.50;;;;;10.10;63.27;101344.09;5023120;28;45342;-65
2022/03/03 04:48:12;;;;;;;;;80.25;58.00;;;;;10.11;63.84;101345.84;5022014;28;45464;-65
2022/03/03 04:50:37;;;;;;;;;80.75;60.50;;;;;10.11;64.06;101346.69;5023415;28;45364;-65
2022/03/03 04:53:03;;;;;;;;;81.25;63.75;;;;;10.11;63.98;101349.41;5023053;28;45444;-64
2022/03/03 04:55:28;;;;;;;;;79.00;60.25;;;;;10.08;63.89;101335.25;5021587;28;45354;-65
2022/03/03 04:57:54;;;;;;;;;81.50;61.25;;;;;10.15;64.02;101341.88;5023001;28;45497;-65
2022/03/03 05:00:19;;;;;;;;;77.25;60.25;;;;;10.17;64.28;101334.47;5023301;28;45244;-65
2022/03/03 05:02:45;;;;;;;;;73.75;56.00;;;;;10.22;64.05;101336.81;5023191;28;45323;-65
2022/03/03 05:05:10;;;;;;;;;76.25;56.50;;;;;10.26;63.61;101332.84;5021421;28;45787;-65
2022/03/03 05:07:36;;;;;;;;;77.75;59.00;;;;;10.31;63.97;101338.72;5021528;28;45372;-65
2022/03/03 05:10:01;;;;;;;;;76.75;58.50;;;;;10.32;64.53;101338.59;5021723;28;45293;-65
2022/03/03 05:12:27;;;;;;;;;72.25;56.00;;;;;10.32;65.05;101338.59;5021980;28;45941;-65
2022/03/03 05:14:52;;;;;;;;;72.00;53.75;;;;;10.30;65.51;101345.16;5020542;28;45671;-65
2022/03/03 05:17:18;;;;;;;;;63.00;51.25;;;;;10.25;64.97;101333.81;5022915;28;45323;-64
2022/03/03 05:19:44;;;;;;;;;69.75;54.25;;;;;10.36;65.21;101336.50;5018190;28;45602;-65
2022/03/03 05:22:10;;;;;;;;;67.50;51.25;;;;;10.40;65.34;101336.06;5013981;28;45276;-65
2022/03/03 05:24:35;;;;;;;;;70.25;54.25;;;;;10.45;65.06;101332.94;5022476;28;45478;-65
2022/03/03 05:27:00;;;;;;;;;71.25;53.75;;;;;10.45;65.76;101333.81;5021190;28;46618;-65
2022/03/03 05:29:27;;;;;;;;;60.75;47.75;;;;;10.47;66.27;101341.84;5022566;28;45280;-65
2022/03/03 05:31:53;;;;;;;;;64.00;52.00;;;;;10.47;66.35;101336.41;5021740;28;46544;-65
2022/03/03 05:34:18;;;;;;;;;65.50;49.25;;;;;10.50;65.99;101336.16;5020517;28;45470;-65
2022/03/03 05:36:44;;;;;;;;;72.00;52.75;;;;;10.54;66.38;101343.03;5022453;28;45645;-65
2022/03/03 05:39:09;;;;;;;;;63.50;51.00;;;;;10.47;67.00;101337.25;5022168;28;45441;-66
2022/03/03 05:41:35;;;;;;;;;66.50;51.00;;;;;10.46;67.16;101345.53;5021451;28;45579;-66
2022/03/03 05:44:01;;;;;;;;;75.00;58.75;;;;;10.35;66.35;101345.63;5020376;28;45393;-65
2022/03/03 05:46:27;;;;;;;;;82.00;59.50;;;;;10.20;66.24;101333.38;5022477;28;45399;-64
2022/03/03 05:48:52;;;;;;;;;82.50;64.50;;;;;10.23;65.80;101327.69;5020692;28;45569;-64
2022/03/03 05:51:19;;;;;;;;;83.00;64.50;;;;;10.26;65.86;101350.00;5021425;28;45626;-66
2022/03/03 05:53:45;;;;;;;;;83.25;62.75;;;;;10.09;65.96;101343.25;5022379;28;45399;-65
2022/03/03 05:56:14;;;;;;;;;86.75;65.00;;;;;10.02;66.26;101352.91;5020700;28;45548;-65
2022/03/03 05:58:44;;;;;;;;;87.50;64.25;;;;;9.99;66.25;101346.88;5022164;28;45475;-65
2022/03/03 06:01:12;;;;;;;;;84.25;64.75;;;;;10.08;66.25;101344.22;5022312;28;45521;-65
2022/03/03 06:03:39;;;;;;;;;82.75;61.50;;;;;10.01;66.70;101348.47;5021916;28;45319;-66
2022/03/03 06:06:14;;;;;;;;;80.50;63.25;;;;;10.06;66.29;101343.53;5022271;28;45402;-65
2022/03/03 06:08:42;;;;;;;;;80.50;61.00;;;;;10.15;65.90;101337.28;5020596;28;45276;-64
2022/03/03 06:11:15;;;;;;;;;81.75;62.00;;;;;10.15;66.00;101334.56;5021763;28;45236;-65
2022/03/03 06:13:46;;;;;;;;;82.25;62.25;;;;;10.08;66.25;101335.25;5022063;28;45423;-65
2022/03/03 06:16:19;;;;;;;;;85.25;65.25;;;;;9.98;66.86;101334.31;5020654;28;45401;-65
2022/03/03 06:18:46;;;;;;;;;85.25;65.25;;;;;9.94;67.05;101333.69;5022354;28;45178;-66
2022/03/03 06:21:11;;;;;;;;;85.75;66.25;;;;;10.03;66.66;101341.06;5020981;28;45426;-65
2022/03/03 06:23:36;;;;;;;;;86.00;66.75;;;;;10.05;67.01;101336.38;5020596;28;45361;-65
2022/03/03 06:26:05;;;;;;;;;78.00;60.00;;;;;10.08;66.44;101346.94;5024813;28;45282;-65
2022/03/03 06:28:31;;;;;;;;;83.00;66.25;;;;;10.16;66.26;101343.56;5021819;28;45379;-65
2022/03/03 06:30:56;;;;;;;;;83.25;61.50;;;;;10.24;66.29;101357.41;5023432;28;46317;-66
2022/03/03 06:33:22;;;;;;;;;82.50;62.75;;;;;10.26;66.30;101352.72;5023710;28;45735;-65
2022/03/03 06:35:47;;;;;;;;;93.75;72.25;;;;;10.21;66.35;101351.38;5021908;28;45482;-66
2022/03/03 06:38:13;;;;;;;;;77.00;60.00;;;;;10.23;66.67;101357.56;5023868;28;45540;-66
2022/03/03 06:40:38;;;;;;;;;91.50;68.25;;;;;10.22;66.76;101353.13;5021564;28;47737;-65
2022/03/03 06:43:04;;;;;;;;;85.25;61.25;;;;;10.21;66.97;101362.25;5022638;28;45900;-65
2022/03/03 06:45:31;;;;;;;;;83.50;63.50;;;;;10.29;66.43;101355.19;5024738;28;45458;-65
2022/03/03 06:48:01;;;;;;;;;79.50;61.00;;;;;10.36;66.50;101352.78;5024024;28;45455;-66
2022/03/03 06:50:27;;;;;;;;;67.00;50.75;;;;;10.40;67.25;101356.94;5024270;28;45317;-67
2022/03/03 06:52:53;;;;;;;;;69.00;52.25;;;;;10.49;68.03;101358.88;5024921;28;45518;-65
2022/03/03 06:55:27;;;;;;;;;61.75;48.50;;;;;10.52;68.91;101359.44;5024911;28;45247;-65
2022/03/03 06:57:55;;;;;;;;;60.25;46.25;;;;;10.59;68.63;101361.66;5024529;28;45616;-66
2022/03/03 07:00:29;;;;;;;;;57.75;45.75;;;;;10.61;68.68;101349.66;5022878;28;48512;-67
2022/03/03 07:02:54;;;;;;;;;56.50;45.50;;;;;10.73;69.06;101367.63;5024511;28;45246;-65
2022/03/03 07:05:21;;;;;;;;;55.50;46.00;;;;;10.75;68.91;101356.59;5032859;28;45236;-65
2022/03/03 07:07:48;;;;;;;;;31.75;20.50;;;;;10.77;69.07;101358.19;5023447;28;45309;-65
2022/03/03 07:10:19;;;;;;;;;58.50;44.00;;;;;10.84;69.22;101358.50;5024050;28;46135;-64
2022/03/03 07:12:45;;;;;;;;;54.25;44.75;;;;;10.87;69.57;101361.81;5022483;28;45776;-66
2022/03/03 07:15:11;;;;;;;;;50.75;41.75;;;;;10.95;68.86;101363.00;5022713;28;45399;-66
2022/03/03 07:17:42;;;;;;;;;48.50;40.00;;;;;11.03;69.04;101365.91;5024728;28;45365;-65
2022/03/03 07:20:13;;;;;;;;;53.25;42.50;;;;;11.08;69.25;101363.63;5024179;28;45444;-65
2022/03/03 07:22:53;;;;;;;;;52.50;40.50;;;;;11.10;69.11;101356.22;5023942;28;45288;-66
2022/03/03 07:25:23;;;;;;;;;54.75;43.00;;;;;11.11;68.80;101358.75;5023693;28;45228;-65
2022/03/03 07:27:54;;;;;;;;;56.25;46.00;;;;;11.16;69.06;101367.41;5021460;28;45300;-65
2022/03/03 07:30:19;;;;;;;;;53.25;42.00;;;;;11.17;69.11;101363.69;5023659;28;45461;-66
2022/03/03 07:33:03;;;;;;;;;60.75;47.75;;;;;11.24;69.22;101366.72;5021901;28;45177;-66
2022/03/03 07:35:29;;;;;;;;;65.25;52.25;;;;;11.29;68.72;101364.41;5021258;28;45245;-66
2022/03/03 07:38:02;;;;;;;;;60.75;48.50;;;;;11.34;68.65;101359.41;5023680;28;45487;-68
2022/03/03 07:40:30;;;;;;;;;54.75;44.75;;;;;11.38;68.42;101362.75;5023602;28;45513;-68
2022/03/03 07:42:57;;;;;;;;;62.75;45.50;;;;;11.41;67.92;101348.84;5023536;28;45470;-68
2022/03/03 07:45:23;;;;;;;;;55.75;43.75;;;;;11.44;68.30;101354.00;5022235;28;45485;-69
2022/03/03 07:47:50;;;;;;;;;58.50;45.25;;;;;11.45;68.50;101363.91;5039120;28;45503;-67
2022/03/03 07:50:16;;;;;;;;;62.50;48.00;;;;;11.47;68.32;101359.19;5022766;28;46856;-67
2022/03/03 07:52:44;;;;;;;;;54.50;44.25;;;;;11.45;69.02;101363.91;5023296;28;45152;-68
2022/03/03 07:55:10;;;;;;;;;57.50;46.00;;;;;11.46;68.97;101350.16;5022053;28;45217;-67
2022/03/03 07:57:40;;;;;;;;;55.50;45.50;;;;;11.58;68.89;101361.78;5023439;28;45454;-67
2022/03/03 08:00:09;;;;;;;;;51.00;41.25;;;;;11.64;68.11;101359.34;5023277;28;46160;-68
2022/03/03 08:02:35;;;;;;;;;60.50;46.25;;;;;11.64;68.64;101361.22;5021665;28;45267;-67
2022/03/03 08:05:02;;;;;;;;;61.50;48.75;;;;;11.68;68.69;101363.53;5022845;28;45184;-67
2022/03/03 08:07:28;;;;;;;;;51.75;41.00;;;;;11.73;68.30;101354.94;5022142;28;45407;-67
2022/03/03 08:09:59;;;;;;;;;55.75;44.50;;;;;11.75;68.34;101352.13;5023234;28;45528;-68
2022/03/03 08:12:25;;;;;;;;;58.00;44.75;;;;;11.83;68.07;101361.28;5038690;28;45276;-68
2022/03/03 08:14:52;;;;;;;;;59.75;43.50;;;;;11.88;67.84;101353.56;5023067;28;45435;-68
2022/03/03 08:17:18;;;;;;;;;59.75;45.50;;;;;11.95;67.57;101353.84;5022335;28;45519;-67
2022/03/03 08:19:44;;;;;;;;;58.50;43.50;;;;;11.94;68.05;101354.84;5022962;28;45413;-68
2022/03/03 08:22:12;;;;;;;;;56.50;45.00;;;;;12.04;67.86;101351.13;5023241;28;45346;-67
2022/03/03 08:24:42;;;;;;;;;56.00;44.25;;;;;12.07;67.27;101341.78;5038664;28;45292;-67
2022/03/03 08:27:09;;;;;;;;;55.50;43.50;;;;;12.20;66.81;101350.53;5023802;28;45296;-67
2022/03/03 08:29:34;;;;;;;;;56.75;43.50;;;;;12.24;66.88;101348.41;5022767;28;45387;-67
2022/03/03 08:32:02;;;;;;;;;54.25;42.75;;;;;12.31;66.62;101354.97;5023335;28;45350;-66
2022/03/03 08:34:43;;;;;;;;;58.25;46.00;;;;;12.36;66.59;101352.66;5023031;28;45522;-67
2022/03/03 08:37:16;;;;;;;;;61.50;49.50;;;;;12.37;66.86;101357.97;5023409;28;45533;-66
2022/03/03 08:39:45;;;;;;;;;53.25;44.25;;;;;12.33;67.20;101345.66;5023143;28;45354;-66
2022/03/03 08:42:13;;;;;;;;;58.50;45.75;;;;;12.49;66.68;101350.53;5022917;28;45407;-67
2022/03/03 08:44:42;;;;;;;;;56.00;44.00;;;;;12.62;65.99;101352.94;5021563;28;45284;-66
2022/03/03 08:47:13;;;;;;;;;59.00;46.75;;;;;12.57;65.58;101341.59;5022061;28;45381;-67
2022/03/03 08:49:41;;;;;;;;;61.75;48.00;;;;;12.57;66.14;101345.16;5023120;28;45231;-67
2022/03/03 08:52:08;;;;;;;;;56.25;46.75;;;;;12.57;65.93;101357.94;5023095;28;45378;-69
2022/03/03 08:54:34;;;;;;;;;54.50;44.25;;;;;12.67;65.86;101358.78;5023177;28;45331;-67
2022/03/03 08:56:59;;;;;;;;;51.25;43.75;;;;;12.76;65.75;101360.66;5018811;28;45399;-67
2022/03/03 08:59:25;;;;;;;;;62.25;46.00;;;;;12.82;65.28;101363.63;5014064;28;45788;-67
2022/03/03 09:01:51;;;;;;;;;56.75;43.00;;;;;12.89;65.01;101355.72;5021585;28;45789;-67
2022/03/03 09:04:17;;;;;;;;;50.50;42.50;;;;;12.95;64.59;101370.63;5036362;28;45460;-67
2022/03/03 09:06:43;;;;;;;;;58.00;47.75;;;;;12.97;64.50;101363.16;5023165;28;45242;-67
2022/03/03 09:09:09;;;;;;;;;62.00;47.00;;;;;13.05;64.56;101366.00;5022681;28;46142;-67
2022/03/03 09:11:34;;;;;;;;;56.50;43.75;;;;;13.09;64.68;101368.28;5022956;28;45298;-67
2022/03/03 09:13:59;;;;;;;;;54.75;43.25;;;;;13.22;64.21;101365.25;5021281;28;45370;-67
2022/03/03 09:16:26;;;;;;;;;55.25;46.00;;;;;13.31;63.97;101366.19;5023280;28;45148;-67
2022/03/03 09:18:52;;;;;;;;;57.50;44.25;;;;;13.15;64.00;101356.78;5021319;28;47241;-67
2022/03/03 09:21:17;;;;;;;;;57.50;46.50;;;;;13.25;63.90;101357.63;5022444;28;45473;-67
2022/03/03 09:23:43;;;;;;;;;62.00;47.00;;;;;13.34;63.68;101355.84;5023156;28;45761;-67
2022/03/03 09:26:08;;;;;;;;;59.00;47.00;;;;;13.33;63.54;101359.59;5022756;28;45260;-67
2022/03/03 09:28:34;;;;;;;;;58.00;46.50;;;;;13.35;63.67;101371.22;5020628;28;47275;-67
2022/03/03 09:31:00;;;;;;;;;61.00;46.50;;;;;13.31;64.26;101366.19;5022383;28;45428;-67
2022/03/03 09:33:26;;;;;;;;;61.50;48.25;;;;;13.18;64.40;101369.28;5021425;28;45311;-67
2022/03/03 09:35:51;;;;;;;;;58.50;44.75;;;;;13.33;63.65;101366.91;5022494;28;45240;-68
2022/03/03 09:38:17;;;;;;;;;54.75;46.25;;;;;13.41;63.24;101364.28;5022628;28;46130;-68
2022/03/03 09:40:43;;;;;;;;;63.25;49.00;;;;;13.49;63.45;101359.78;5021262;28;46239;-68
2022/03/03 09:43:10;;;;;;;;;60.25;46.00;;;;;13.56;63.11;101357.31;5022448;28;45215;-68
2022/03/03 09:45:37;;;;;;;;;55.25;43.75;;;;;13.59;62.94;101355.13;5021619;28;45660;-67
2022/03/03 09:48:05;;;;;;;;;58.50;46.25;;;;;13.51;62.37;101346.88;5022438;28;45405;-66
2022/03/03 09:50:31;;;;;;;;;56.50;44.00;;;;;13.51;62.40;101349.59;5020757;28;45316;-68
2022/03/03 09:52:57;;;;;;;;;63.00;46.50;;;;;13.54;62.66;101348.41;5022464;28;45323;-67
2022/03/03 09:55:23;;;;;;;;;61.50;47.50;;;;;13.52;62.47;101347.69;5022420;28;45467;-67
2022/03/03 09:57:49;;;;;;;;;57.75;45.50;;;;;13.57;62.82;101345.38;5021543;28;45303;-67
2022/03/03 10:00:15;;;;;;;;;58.00;44.75;;;;;13.65;63.02;101350.94;5024333;28;45253;-67
2022/03/03 10:03:15;;;;;;;;;53.25;43.75;;;;;13.71;62.54;101347.59;5026015;28;45225;-67
2022/03/03 10:05:45;;;;;;;;;52.25;42.25;;;;;13.75;62.30;101359.91;5035467;28;45430;-68
2022/03/03 10:08:13;;;;;;;;;55.00;46.25;;;;;13.75;61.97;101351.72;5025328;28;45455;-67
2022/03/03 10:10:41;;;;;;;;;52.00;44.00;;;;;13.75;62.16;101354.44;5025589;28;45336;-66
2022/03/03 10:13:08;;;;;;;;;55.25;45.00;;;;;13.80;62.19;101345.81;5025266;28;45232;-67
2022/03/03 10:15:38;;;;;;;;;61.00;48.00;;;;;13.79;62.05;101341.34;5024734;28;45516;-67
2022/03/03 10:18:06;;;;;;;;;58.25;47.00;;;;;13.80;61.78;101348.53;5037345;28;47939;-66
2022/03/03 10:20:47;;;;;;;;;57.50;43.75;;;;;13.78;61.95;101345.09;5024130;28;45331;-67
2022/03/03 10:23:13;;;;;;;;;47.50;40.00;;;;;13.85;61.67;101348.94;5025450;28;45331;-67
2022/03/03 10:25:41;;;;;;;;;52.50;42.75;;;;;13.82;61.58;101328.22;5025920;28;45220;-67
2022/03/03 10:28:39;;;;;;;;;50.25;39.25;;;;;13.88;61.55;101343.16;5024736;28;46631;-67
2022/03/03 10:31:08;;;;;;;;;53.75;42.75;;;;;13.85;61.08;101344.31;5024007;28;45442;-68
2022/03/03 10:33:36;;;;;;;;;51.75;41.00;;;;;13.87;61.34;101341.44;5024184;28;45375;-67
2022/03/03 10:36:12;;;;;;;;;56.50;45.50;;;;;13.82;61.91;101339.16;5025540;28;45271;-67
2022/03/03 10:38:47;;;;;;;;;59.75;47.50;;;;;13.81;61.90;101337.44;5023625;28;47131;-67
2022/03/03 10:41:38;;;;;;;;;60.75;45.00;;;;;13.71;61.99;101341.25;5024920;28;45181;-67
2022/03/03 10:44:05;;;;;;;;;58.75;47.25;;;;;13.70;62.50;101336.81;5023374;28;45331;-67
2022/03/03 10:46:31;;;;;;;;;61.50;46.25;;;;;13.74;61.96;101341.78;5020993;28;45478;-67
2022/03/03 10:48:57;;;;;;;;;52.50;43.75;;;;;13.71;62.16;101333.94;5023209;28;46590;-68
2022/03/03 10:51:24;;;;;;;;;59.75;44.25;;;;;13.82;62.37;101344.63;5023523;28;45280;-67
2022/03/03 10:54:02;;;;;;;;;57.25;45.25;;;;;13.90;62.16;101335.66;5025056;28;45315;-68
2022/03/03 10:56:27;;;;;;;;;55.50;46.50;;;;;14.02;61.55;101340.75;5023979;28;45332;-67
2022/03/03 10:58:58;;;;;;;;;60.00;47.75;;;;;14.04;61.32;101335.97;5024569;28;46200;-67
2022/03/03 11:01:30;;;;;;;;;58.75;47.75;;;;;14.09;60.46;101332.78;5025054;28;45303;-67
2022/03/03 11:03:56;;;;;;;;;56.00;45.25;;;;;14.11;60.93;101333.47;5025282;28;45439;-65
2022/03/03 11:06:33;;;;;;;;;56.00;42.25;;;;;14.17;60.77;101338.28;5025133;28;45240;-66
2022/03/03 11:08:59;;;;;;;;;54.25;43.50;;;;;14.18;60.68;101339.16;5024971;28;45483;-66
2022/03/03 11:11:25;;;;;;;;;58.25;46.00;;;;;14.29;60.81;101341.66;5023361;28;45213;-67